Terminal Aerodrome Forecast
Issued by NWS

Home | Current Version | Previous Version | Text Only | Print | Product List | Glossary On
Versions: 1 2 3 4 5 6 7 8 9 10 11 12 13 14 15 16 17 18
000
FTAK31 PAJN 221128
TAFASI
TAF
PASI 221128Z 2212/2312 VRB06KT P6SM -RA OVC040
     FM221700 18010KT 4SM -RA BR FEW008 OVC020
     FM222200 18008KT P6SM VCSH SCT020 OVC040
     FM230800 12012KT P6SM -SHRA OVC030=

USA.gov is the U.S. government's official web portal to all federal, state and local government web resources and services.